Time;durP1;ratioP1;P1;durP2;ratioP2;P2;SDS_P1;SDS_P2;PMS_P1;PMS_P2;Temp;Humidity;BMP_temperature;BMP_pressure;BME280_temperature;BME280_humidity;BME280_pressure;Samples;Min_cycle;Max_cycle;Signal;HPM_P1;HPM_P2
2022/01/10 00:01:08;;;;;;;34.95;7.47;;;1.50;99.90;;;;;;4990097;28;20042;-74
2022/01/10 00:03:37;;;;;;;34.60;7.80;;;1.50;99.90;;;;;;4988511;28;20490;-81
2022/01/10 00:06:04;;;;;;;35.85;7.90;;;1.50;99.90;;;;;;4987669;28;20435;-74
2022/01/10 00:08:33;;;;;;;27.63;7.40;;;1.50;99.90;;;;;;4987973;28;20042;-76
2022/01/10 00:11:01;;;;;;;37.80;7.50;;;1.50;99.90;;;;;;4990910;28;20049;-78
2022/01/10 00:13:29;;;;;;;24.00;6.72;;;1.50;99.90;;;;;;4987516;28;20046;-73
2022/01/10 00:15:56;;;;;;;34.42;7.32;;;1.50;99.90;;;;;;4988516;28;20169;-73
2022/01/10 00:18:24;;;;;;;36.10;6.75;;;1.50;99.90;;;;;;4988169;28;20061;-73
2022/01/10 00:20:52;;;;;;;29.20;7.05;;;1.50;99.90;;;;;;4988206;28;20042;-73
2022/01/10 00:23:20;;;;;;;42.28;7.03;;;1.50;99.90;;;;;;4987969;28;20405;-76
2022/01/10 00:25:48;;;;;;;35.70;7.00;;;1.50;99.90;;;;;;4986079;28;20391;-75
2022/01/10 00:28:15;;;;;;;41.83;7.65;;;1.50;99.90;;;;;;4986375;28;20466;-75
2022/01/10 00:30:43;;;;;;;32.90;8.10;;;1.40;99.90;;;;;;4986633;28;20057;-72
2022/01/10 00:33:10;;;;;;;37.33;8.38;;;1.40;99.90;;;;;;4985560;28;20118;-76
2022/01/10 00:35:38;;;;;;;32.50;7.47;;;1.40;99.90;;;;;;4986043;28;20062;-74
2022/01/10 00:38:06;;;;;;;32.75;6.90;;;1.40;99.90;;;;;;4986194;28;20054;-72
2022/01/10 00:40:34;;;;;;;36.97;6.80;;;1.40;99.90;;;;;;4970219;28;20061;-72
2022/01/10 00:43:02;;;;;;;44.30;7.13;;;1.40;99.90;;;;;;4987428;28;20054;-73
2022/01/10 00:45:30;;;;;;;35.83;7.40;;;1.40;99.90;;;;;;4986277;28;20080;-74
2022/01/10 00:47:59;;;;;;;30.30;6.75;;;1.40;99.90;;;;;;4985945;28;20058;-76
2022/01/10 00:50:29;;;;;;;35.22;6.88;;;1.40;99.90;;;;;;4985952;28;20535;-73
2022/01/10 00:52:57;;;;;;;39.72;6.57;;;1.50;99.90;;;;;;4970105;28;20057;-73
2022/01/10 00:55:25;;;;;;;35.17;6.75;;;1.40;99.90;;;;;;4970254;28;20529;-74
2022/01/10 00:57:53;;;;;;;38.88;6.65;;;1.40;99.90;;;;;;4986601;28;20061;-77
2022/01/10 01:00:20;;;;;;;30.45;6.15;;;1.40;99.90;;;;;;4985499;28;20057;-74
2022/01/10 01:02:49;;;;;;;30.27;5.85;;;1.30;99.90;;;;;;4987196;28;20419;-75
2022/01/10 01:05:20;;;;;;;32.85;6.10;;;1.30;99.90;;;;;;4986487;28;20043;-76
2022/01/10 01:07:48;;;;;;;34.15;5.38;;;1.20;99.90;;;;;;4985908;28;20058;-73
2022/01/10 01:15:57;;;;;;;40.88;6.20;;;1.20;99.90;;;;;;4986009;28;20058;-76
2022/01/10 01:19:02;;;;;;;37.65;5.82;;;1.10;99.90;;;;;;4985927;28;20480;-75
2022/01/10 01:24:08;;;;;;;45.97;7.10;;;1.10;99.90;;;;;;4987457;28;20407;-77
2022/01/10 01:26:44;;;;;;;35.13;7.13;;;1.10;99.90;;;;;;4985900;28;20061;-81
2022/01/10 01:29:21;;;;;;;31.40;6.25;;;1.10;99.90;;;;;;4985930;28;20046;-78
2022/01/10 01:31:50;;;;;;;49.33;7.25;;;1.10;99.90;;;;;;4986497;28;20038;-73
2022/01/10 01:34:19;;;;;;;39.33;6.50;;;1.10;99.90;;;;;;4969641;28;20491;-74
2022/01/10 01:36:51;;;;;;;36.25;6.50;;;1.00;99.90;;;;;;4985825;28;20050;-79
2022/01/10 01:39:23;;;;;;;39.30;6.22;;;1.00;99.90;;;;;;4985665;28;20070;-80
2022/01/10 01:42:06;;;;;;;25.60;5.75;;;1.00;99.90;;;;;;4986709;28;20054;-79
2022/01/10 01:44:35;;;;;;;30.45;6.30;;;1.00;99.90;;;;;;5001318;28;20754;-78
2022/01/10 01:47:04;;;;;;;37.13;5.85;;;0.90;99.90;;;;;;4985641;28;20503;-73
2022/01/10 01:49:32;;;;;;;38.28;6.05;;;0.90;99.90;;;;;;4985456;28;20049;-76
2022/01/10 01:52:00;;;;;;;35.13;5.57;;;0.90;99.90;;;;;;4985440;28;20365;-73
2022/01/10 01:54:28;;;;;;;29.88;5.53;;;0.90;99.90;;;;;;4985519;28;20507;-73
2022/01/10 01:56:56;;;;;;;35.70;6.43;;;0.90;99.90;;;;;;4985217;28;20050;-76
2022/01/10 01:59:24;;;;;;;35.45;6.57;;;0.90;99.90;;;;;;4984499;28;20061;-73
2022/01/10 02:01:52;;;;;;;35.63;6.40;;;0.90;99.90;;;;;;4969275;28;20054;-73
2022/01/10 02:04:20;;;;;;;45.97;6.38;;;0.90;99.90;;;;;;4969218;28;20073;-80
2022/01/10 02:06:52;;;;;;;41.65;6.40;;;0.90;99.90;;;;;;4985567;28;20399;-79
2022/01/10 02:09:20;;;;;;;37.33;6.60;;;0.90;99.90;;;;;;4975304;28;20058;-83
2022/01/10 02:11:51;;;;;;;40.38;6.05;;;1.00;99.90;;;;;;4986258;28;20462;-77
2022/01/10 02:14:20;;;;;;;34.75;6.47;;;0.90;99.90;;;;;;5002513;28;20050;-74
2022/01/10 02:16:55;;;;;;;;;;;0.90;99.90;;;;;;4986393;28;20046;-76
2022/01/10 02:19:59;;;;;;;28.70;4.85;;;1.00;99.90;;;;;;4998578;28;19944;-76
2022/01/10 02:22:32;;;;;;;32.67;4.88;;;0.90;99.90;;;;;;4985975;28;20039;-74
2022/01/10 02:25:20;;;;;;;31.83;5.40;;;0.90;99.90;;;;;;4998948;28;20069;-78
2022/01/10 02:27:50;;;;;;;38.55;5.65;;;0.90;99.90;;;;;;4987343;28;20054;-72
2022/01/10 02:30:18;;;;;;;30.48;5.15;;;0.90;99.90;;;;;;4987757;28;20050;-73
2022/01/10 02:32:46;;;;;;;35.50;5.63;;;0.90;99.90;;;;;;4997161;28;20050;-74
2022/01/10 02:35:27;;;;;;;28.70;4.72;;;0.90;99.90;;;;;;4990460;28;20050;-72
2022/01/10 02:37:56;;;;;;;27.55;5.40;;;0.90;99.90;;;;;;5001756;28;20051;-76
2022/01/10 02:40:27;;;;;;;40.30;5.97;;;1.00;99.90;;;;;;4985992;28;20061;-72
2022/01/10 02:42:56;;;;;;;33.90;5.25;;;1.00;99.90;;;;;;4985628;28;20054;-76
2022/01/10 02:45:24;;;;;;;39.65;5.65;;;1.00;99.90;;;;;;4984834;28;20411;-75
2022/01/10 02:47:53;;;;;;;35.20;5.18;;;1.00;99.90;;;;;;4986948;28;20372;-73
2022/01/10 02:50:22;;;;;;;32.05;5.63;;;1.10;99.90;;;;;;4988415;28;20053;-75
2022/01/10 02:52:50;;;;;;;34.65;4.95;;;1.00;99.90;;;;;;4985843;28;20050;-73
2022/01/10 02:55:18;;;;;;;24.40;4.57;;;1.10;99.90;;;;;;4969566;28;20493;-72
2022/01/10 02:57:46;;;;;;;46.72;6.30;;;1.20;99.90;;;;;;4988151;28;20042;-72
2022/01/10 03:00:16;;;;;;;;;;;1.20;99.90;;;;;;4989791;28;20046;-76
2022/01/10 03:02:48;;;;;;;36.72;4.57;;;1.20;99.90;;;;;;4990148;28;19968;-77
2022/01/10 03:05:17;;;;;;;35.17;5.32;;;1.20;99.90;;;;;;4973097;28;20041;-78
2022/01/10 03:07:46;;;;;;;40.75;5.53;;;1.20;99.90;;;;;;4972384;28;20066;-77
2022/01/10 03:10:14;;;;;;;39.28;5.68;;;1.20;99.90;;;;;;4990113;28;20400;-73
2022/01/10 03:12:43;;;;;;;;;;;1.20;99.90;;;;;;4972193;28;20050;-79
2022/01/10 03:15:13;;;;;;;25.70;4.88;;;1.20;99.90;;;;;;5021392;28;19925;-75
2022/01/10 03:17:41;;;;;;;;;;;1.20;99.90;;;;;;4990243;28;20058;-73
2022/01/10 03:20:09;;;;;;;35.88;4.97;;;1.30;99.90;;;;;;5005195;28;19929;-73
2022/01/10 03:22:37;;;;;;;33.50;5.18;;;1.30;99.90;;;;;;4988767;28;20046;-72
2022/01/10 03:25:05;;;;;;;39.65;4.75;;;1.30;99.90;;;;;;4988455;28;20053;-76
2022/01/10 03:27:37;;;;;;;33.53;5.30;;;1.30;99.90;;;;;;4988540;28;20047;-73
2022/01/10 03:30:05;;;;;;;27.52;4.85;;;1.30;99.90;;;;;;4988720;28;20069;-73
2022/01/10 03:32:34;;;;;;;33.25;4.93;;;1.30;99.90;;;;;;4988092;28;20051;-73
2022/01/10 03:35:10;;;;;;;29.92;4.72;;;1.30;99.90;;;;;;4988296;28;20058;-74
2022/01/10 03:37:37;;;;;;;;;;;1.40;99.90;;;;;;4988845;28;20047;-80
2022/01/10 03:40:07;;;;;;;27.55;4.40;;;1.40;99.90;;;;;;4972015;28;19925;-75
2022/01/10 03:42:35;;;;;;;30.13;4.15;;;1.40;99.90;;;;;;4988012;28;20042;-74
2022/01/10 03:45:04;;;;;;;;;;;1.40;99.90;;;;;;4988969;28;20427;-73
2022/01/10 03:47:31;;;;;;;23.70;3.83;;;1.40;99.90;;;;;;4974824;28;19928;-73
2022/01/10 03:49:59;;;;;;;39.22;4.80;;;1.40;99.90;;;;;;4977908;28;20046;-72
2022/01/10 03:52:29;;;;;;;30.95;5.65;;;1.50;99.90;;;;;;4971729;28;20691;-73
2022/01/10 03:54:57;;;;;;;31.67;5.75;;;1.50;99.90;;;;;;4972056;28;20042;-72
2022/01/10 03:57:25;;;;;;;41.90;5.75;;;1.50;99.90;;;;;;4988184;28;20547;-74
2022/01/10 03:59:53;;;;;;;;;;;1.50;99.90;;;;;;4972991;28;20061;-73
2022/01/10 04:02:22;;;;;;;34.47;5.43;;;1.50;99.90;;;;;;4987945;28;19940;-79
2022/01/10 04:04:50;;;;;;;31.02;5.07;;;1.50;99.90;;;;;;4972615;28;20046;-80
2022/01/10 04:07:18;;;;;;;40.45;5.82;;;1.60;99.90;;;;;;4987505;28;20439;-74
2022/01/10 04:09:47;;;;;;;29.17;5.68;;;1.60;99.90;;;;;;4987834;28;20050;-76
2022/01/10 04:12:15;;;;;;;40.55;6.55;;;1.60;99.90;;;;;;4987609;28;20074;-76
2022/01/10 04:14:42;;;;;;;41.10;5.30;;;1.60;99.90;;;;;;4987269;28;20104;-82
2022/01/10 04:17:11;;;;;;;28.15;5.28;;;1.60;99.90;;;;;;4971432;28;20034;-77
2022/01/10 04:19:39;;;;;;;31.27;5.40;;;1.60;99.90;;;;;;4987431;28;20529;-74
2022/01/10 04:22:07;;;;;;;39.40;4.78;;;1.60;99.90;;;;;;4987941;28;20055;-74
2022/01/10 04:24:35;;;;;;;25.25;4.30;;;1.60;99.90;;;;;;4987610;28;20066;-78
2022/01/10 04:27:03;;;;;;;32.90;4.47;;;1.70;99.90;;;;;;4986675;28;20058;-76
2022/01/10 04:29:31;;;;;;;29.98;4.50;;;1.70;99.90;;;;;;4986415;28;20047;-79
2022/01/10 04:32:00;;;;;;;25.88;3.83;;;1.70;99.90;;;;;;4970431;28;20064;-73
2022/01/10 04:34:28;;;;;;;27.75;5.00;;;1.70;99.90;;;;;;4987142;28;20051;-81
2022/01/10 04:36:56;;;;;;;34.58;5.13;;;1.80;99.90;;;;;;4967403;28;20050;-82
2022/01/10 04:39:24;;;;;;;28.40;4.50;;;1.80;99.90;;;;;;4987166;28;20049;-81
2022/01/10 04:41:52;;;;;;;34.20;5.18;;;1.80;99.90;;;;;;4987377;28;20053;-82
2022/01/10 04:44:20;;;;;;;29.85;4.50;;;1.80;99.90;;;;;;4987414;28;20778;-79
2022/01/10 04:46:48;;;;;;;26.35;4.22;;;1.90;99.90;;;;;;4986886;28;20046;-81
2022/01/10 04:49:21;;;;;;;24.15;4.28;;;1.90;99.90;;;;;;4970828;28;20061;-78
2022/01/10 04:51:50;;;;;;;30.20;4.68;;;1.90;99.90;;;;;;4970734;28;20058;-78
2022/01/10 04:54:18;;;;;;;37.90;4.88;;;2.00;99.90;;;;;;4987220;28;20050;-78
2022/01/10 04:56:46;;;;;;;;;;;2.00;99.90;;;;;;4987634;28;20403;-79
2022/01/10 04:59:16;;;;;;;30.75;4.20;;;2.00;99.90;;;;;;4970554;28;20394;-79
2022/01/10 05:01:47;;;;;;;33.47;4.72;;;2.00;99.90;;;;;;4988060;28;20054;-79
2022/01/10 05:04:14;;;;;;;27.23;4.70;;;2.00;99.90;;;;;;4986819;28;20526;-78
2022/01/10 05:06:45;;;;;;;27.50;4.63;;;2.10;99.90;;;;;;4986809;28;20058;-79
2022/01/10 05:09:14;;;;;;;38.08;5.47;;;2.10;99.90;;;;;;4986622;28;20057;-77
2022/01/10 05:12:05;;;;;;;28.20;4.93;;;2.10;99.90;;;;;;4989707;28;20069;-79
2022/01/10 05:14:35;;;;;;;27.27;4.57;;;2.10;99.90;;;;;;4971136;28;20518;-78
2022/01/10 05:17:03;;;;;;;35.30;5.15;;;2.10;99.90;;;;;;4986620;28;20054;-78
2022/01/10 05:19:31;;;;;;;27.02;4.35;;;2.20;99.90;;;;;;4985934;28;20508;-76
2022/01/10 05:21:58;;;;;;;33.90;5.28;;;2.20;99.90;;;;;;4987515;28;20058;-77
2022/01/10 05:24:27;;;;;;;27.45;4.70;;;2.20;99.90;;;;;;4986309;28;20049;-81
2022/01/10 05:26:55;;;;;;;25.80;4.85;;;2.20;99.90;;;;;;4986384;28;20054;-80
2022/01/10 05:29:24;;;;;;;30.20;4.75;;;2.20;99.90;;;;;;4986036;28;20054;-79
2022/01/10 05:31:52;;;;;;;35.80;5.45;;;2.20;99.90;;;;;;4970320;28;20403;-79
2022/01/10 05:34:27;;;;;;;34.00;5.47;;;2.20;99.90;;;;;;4970067;28;20376;-76
2022/01/10 05:36:55;;;;;;;27.10;4.72;;;2.20;99.90;;;;;;4986363;28;20054;-76
2022/01/10 05:39:25;;;;;;;27.98;4.65;;;2.30;99.90;;;;;;4970370;28;20054;-77
2022/01/10 05:41:53;;;;;;;30.10;4.70;;;2.30;99.90;;;;;;5002101;28;20054;-77
2022/01/10 05:44:20;;;;;;;30.33;5.20;;;2.30;99.90;;;;;;4986215;28;20423;-79
2022/01/10 05:46:52;;;;;;;32.40;5.60;;;2.20;99.90;;;;;;4987021;28;20057;-79
2022/01/10 05:49:26;;;;;;;24.65;4.80;;;2.30;99.90;;;;;;4984520;28;20050;-80
2022/01/10 05:51:57;;;;;;;23.77;5.30;;;2.30;99.90;;;;;;4984929;28;20084;-77
2022/01/10 05:54:33;;;;;;;30.50;5.25;;;2.30;99.90;;;;;;4983031;28;20042;-79
2022/01/10 05:57:03;;;;;;;30.88;5.53;;;2.30;99.90;;;;;;4985024;28;20042;-79
2022/01/10 05:59:37;;;;;;;30.23;5.97;;;2.40;99.90;;;;;;4985610;28;20045;-81
2022/01/10 06:02:06;;;;;;;26.85;5.55;;;2.40;99.90;;;;;;4985428;28;20054;-80
2022/01/10 06:04:34;;;;;;;28.40;6.45;;;2.40;99.90;;;;;;4968524;28;20847;-80
2022/01/10 06:07:15;;;;;;;26.50;5.75;;;2.40;99.90;;;;;;4985612;28;20069;-81
2022/01/10 06:09:46;;;;;;;22.10;4.78;;;2.50;99.90;;;;;;4985374;28;20062;-82
2022/01/10 06:12:14;;;;;;;22.15;4.78;;;2.50;99.90;;;;;;4985189;28;20077;-79
2022/01/10 06:14:42;;;;;;;29.70;5.18;;;2.50;99.90;;;;;;4968905;28;20057;-81
2022/01/10 06:17:10;;;;;;;33.17;5.47;;;2.60;99.90;;;;;;4985218;28;20054;-83
2022/01/10 06:19:38;;;;;;;33.92;5.80;;;2.50;99.90;;;;;;4986429;28;20050;-79
2022/01/10 06:22:06;;;;;;;;;;;2.60;99.90;;;;;;4987072;28;20062;-82
2022/01/10 06:24:35;;;;;;;34.67;5.40;;;2.60;99.90;;;;;;4985258;28;20390;-80
2022/01/10 06:27:03;;;;;;;25.02;4.82;;;2.60;99.90;;;;;;4968642;28;20058;-77
2022/01/10 06:29:36;;;;;;;29.02;4.97;;;2.60;99.90;;;;;;4969124;28;20051;-79
2022/01/10 06:32:05;;;;;;;34.65;5.47;;;2.70;99.90;;;;;;4971978;28;20065;-75
2022/01/10 06:34:40;;;;;;;29.42;5.13;;;2.70;99.90;;;;;;4974106;28;20046;-78
2022/01/10 06:37:09;;;;;;;30.23;5.60;;;2.70;99.90;;;;;;4971507;28;20795;-76
2022/01/10 06:39:42;;;;;;;39.40;6.10;;;2.70;99.90;;;;;;4970352;28;20051;-78
2022/01/10 06:42:12;;;;;;;27.23;4.63;;;2.80;99.90;;;;;;4985896;28;20488;-77
2022/01/10 06:44:40;;;;;;;24.25;5.10;;;2.70;99.90;;;;;;4985869;28;20041;-72
2022/01/10 06:47:11;;;;;;;21.65;4.68;;;2.70;99.90;;;;;;4953090;28;20090;-82
2022/01/10 06:49:40;;;;;;;;;;;2.70;99.90;;;;;;4985989;28;20051;-76
2022/01/10 06:52:08;;;;;;;24.80;4.93;;;2.70;99.90;;;;;;5001810;28;19925;-74
2022/01/10 06:54:37;;;;;;;27.75;5.43;;;2.60;99.90;;;;;;4975099;28;20042;-77
2022/01/10 06:57:06;;;;;;;39.78;5.80;;;2.70;99.90;;;;;;4972596;28;20514;-75
2022/01/10 06:59:36;;;;;;;30.40;6.53;;;2.70;99.90;;;;;;4973026;28;20058;-74
2022/01/10 07:02:04;;;;;;;;;;;2.70;99.90;;;;;;4988974;28;20062;-73
2022/01/10 07:04:32;;;;;;;23.27;5.38;;;2.70;99.90;;;;;;4988455;28;19925;-73
2022/01/10 07:07:03;;;;;;;29.90;5.47;;;2.70;99.90;;;;;;4988456;28;20061;-72
2022/01/10 07:09:33;;;;;;;24.70;5.35;;;2.70;99.90;;;;;;4988572;28;20046;-72
2022/01/10 07:12:09;;;;;;;25.17;6.03;;;2.70;99.90;;;;;;4988564;28;20065;-73
2022/01/10 07:14:49;;;;;;;32.67;6.70;;;2.70;99.90;;;;;;4990231;28;20054;-73
2022/01/10 07:17:17;;;;;;;29.45;6.50;;;2.70;99.90;;;;;;4972399;28;20530;-75
2022/01/10 07:19:45;;;;;;;30.05;6.07;;;2.70;99.90;;;;;;4988356;28;20051;-80
2022/01/10 07:22:20;;;;;;;35.95;7.38;;;2.70;99.90;;;;;;4971830;28;20073;-79
2022/01/10 07:24:48;;;;;;;31.52;7.47;;;2.70;99.90;;;;;;5004175;28;20050;-76
2022/01/10 07:27:16;;;;;;;25.95;6.63;;;2.70;99.90;;;;;;4988083;28;20046;-80
2022/01/10 07:29:45;;;;;;;30.15;7.13;;;2.70;99.90;;;;;;4989330;28;20057;-79
2022/01/10 07:32:13;;;;;;;30.60;7.30;;;2.80;99.90;;;;;;4987754;28;20054;-75
2022/01/10 07:34:41;;;;;;;31.65;8.20;;;2.80;99.90;;;;;;4987900;28;20046;-83
2022/01/10 07:37:09;;;;;;;24.83;7.35;;;2.80;99.90;;;;;;4969936;28;20465;-74
2022/01/10 07:39:37;;;;;;;37.58;9.43;;;2.80;99.90;;;;;;5003905;28;20049;-76
2022/01/10 07:42:05;;;;;;;41.33;9.35;;;2.80;99.90;;;;;;5003560;28;20042;-80
2022/01/10 07:44:43;;;;;;;38.85;8.15;;;2.80;99.90;;;;;;5004701;28;20405;-76
2022/01/10 07:47:11;;;;;;;31.05;6.78;;;2.80;99.90;;;;;;5001569;28;20185;-81
2022/01/10 07:49:39;;;;;;;32.00;7.38;;;2.80;99.90;;;;;;5001209;28;20050;-82
2022/01/10 07:52:07;;;;;;;30.98;8.32;;;2.90;99.90;;;;;;5003053;28;20057;-74
2022/01/10 07:54:35;;;;;;;26.65;7.32;;;2.90;99.90;;;;;;4998603;28;20046;-76
2022/01/10 07:57:03;;;;;;;31.63;7.47;;;2.90;99.90;;;;;;4999551;28;20696;-80
2022/01/10 07:59:31;;;;;;;32.47;8.15;;;3.00;99.90;;;;;;4997698;28;20037;-79
2022/01/10 08:01:58;;;;;;;35.22;8.05;;;3.00;99.90;;;;;;5001281;28;20053;-79
2022/01/10 08:04:27;;;;;;;31.65;7.95;;;3.00;99.90;;;;;;4994184;28;20379;-80
2022/01/10 08:06:55;;;;;;;39.22;8.65;;;3.00;99.90;;;;;;4994790;28;20053;-83
2022/01/10 08:09:23;;;;;;;;;;;3.10;99.90;;;;;;5005629;28;20398;-76
2022/01/10 08:11:53;;;;;;;;;;;3.10;99.90;;;;;;4975591;28;19929;-80
2022/01/10 08:14:21;;;;;;;32.75;7.40;;;3.10;99.90;;;;;;4986533;28;19929;-81
2022/01/10 08:16:48;;;;;;;34.28;7.53;;;3.10;99.90;;;;;;5002616;28;20054;-78
2022/01/10 08:19:16;;;;;;;35.40;7.97;;;3.10;99.90;;;;;;5004068;28;20371;-75
2022/01/10 08:21:44;;;;;;;38.22;7.97;;;3.10;99.90;;;;;;5000982;28;20048;-78
2022/01/10 08:24:12;;;;;;;36.08;8.10;;;3.10;99.90;;;;;;5006231;28;20046;-73
2022/01/10 08:26:40;;;;;;;28.27;7.93;;;3.20;99.90;;;;;;4997442;28;20160;-79
2022/01/10 08:29:08;;;;;;;37.10;8.52;;;3.20;99.90;;;;;;4997400;28;20499;-78
2022/01/10 08:31:37;;;;;;;35.72;9.50;;;3.20;99.90;;;;;;5006804;28;20414;-75
2022/01/10 08:34:06;;;;;;;31.02;8.65;;;3.20;99.90;;;;;;5008142;28;20422;-77
2022/01/10 08:36:37;;;;;;;40.53;9.38;;;3.20;99.90;;;;;;4989993;28;20054;-81
2022/01/10 08:39:07;;;;;;;34.35;9.27;;;3.20;99.90;;;;;;4987204;28;20049;-74
2022/01/10 08:41:35;;;;;;;40.30;8.70;;;3.30;99.90;;;;;;4987248;28;20049;-77
2022/01/10 08:44:05;;;;;;;24.02;8.02;;;3.30;99.90;;;;;;4987523;28;20053;-75
2022/01/10 08:46:33;;;;;;;28.92;8.60;;;3.30;99.90;;;;;;4988121;28;20403;-73
2022/01/10 08:49:02;;;;;;;44.90;9.30;;;3.40;99.90;;;;;;4985513;28;20053;-79
2022/01/10 08:51:30;;;;;;;37.10;9.15;;;3.40;99.90;;;;;;4971328;28;20046;-74
2022/01/10 08:53:58;;;;;;;;;;;3.40;99.90;;;;;;4974562;28;20361;-82
2022/01/10 08:56:26;;;;;;;28.60;7.75;;;3.40;99.90;;;;;;4975399;28;19925;-82
2022/01/10 08:58:53;;;;;;;34.50;7.40;;;3.50;99.90;;;;;;4992213;28;20057;-78
2022/01/10 09:01:21;;;;;;;32.38;8.25;;;3.50;99.90;;;;;;5000588;28;20043;-82
2022/01/10 09:03:49;;;;;;;41.10;7.60;;;3.60;99.90;;;;;;4994334;28;20046;-82
2022/01/10 09:06:17;;;;;;;39.90;7.72;;;3.60;99.90;;;;;;5013059;28;20046;-83
2022/01/10 09:08:47;;;;;;;47.65;7.55;;;3.60;99.90;;;;;;4993393;28;20046;-76
2022/01/10 09:11:16;;;;;;;33.38;8.23;;;3.70;99.90;;;;;;4991429;28;20299;-78
2022/01/10 09:13:43;;;;;;;49.50;7.55;;;3.70;99.90;;;;;;4992849;28;20054;-85
2022/01/10 09:16:13;;;;;;;30.08;6.38;;;3.80;99.90;;;;;;4983848;28;20050;-79
2022/01/10 09:18:41;;;;;;;34.38;6.82;;;3.80;99.90;;;;;;4963973;28;20643;-87
2022/01/10 09:21:09;;;;;;;32.15;7.32;;;3.90;99.90;;;;;;4974220;28;20053;-82
2022/01/10 09:23:37;;;;;;;34.47;6.10;;;4.00;99.90;;;;;;4975450;28;20043;-85
2022/01/10 09:26:05;;;;;;;37.80;5.80;;;4.00;99.90;;;;;;4982277;28;20046;-84
2022/01/10 09:28:32;;;;;;;33.05;6.07;;;4.10;99.90;;;;;;4974550;28;20049;-78
2022/01/10 09:31:01;;;;;;;30.13;5.32;;;4.10;99.90;;;;;;4968628;28;20058;-78
2022/01/10 09:33:29;;;;;;;32.08;5.60;;;4.20;99.90;;;;;;4960240;28;20065;-79
2022/01/10 09:35:57;;;;;;;32.65;6.47;;;4.30;99.90;;;;;;4985831;28;20043;-75
2022/01/10 09:38:24;;;;;;;36.67;6.53;;;4.20;99.90;;;;;;4984968;28;20057;-82
2022/01/10 09:40:52;;;;;;;41.13;7.22;;;4.30;99.90;;;;;;4986144;28;20061;-76
2022/01/10 09:43:21;;;;;;;35.97;6.22;;;4.40;99.90;;;;;;4985702;28;20474;-81
2022/01/10 09:45:51;;;;;;;30.10;5.93;;;4.40;99.90;;;;;;4963296;28;20817;-81
2022/01/10 09:48:19;;;;;;;36.75;6.07;;;4.50;99.90;;;;;;4984266;28;20388;-83
2022/01/10 09:50:47;;;;;;;;;;;4.60;99.90;;;;;;4971364;28;20039;-74
2022/01/10 09:53:17;;;;;;;29.75;6.20;;;4.60;99.90;;;;;;4980771;28;20029;-73
2022/01/10 09:55:45;;;;;;;29.67;5.90;;;4.70;99.90;;;;;;4991366;28;20046;-76
2022/01/10 09:58:13;;;;;;;30.48;6.75;;;4.70;99.90;;;;;;4986858;28;20050;-74
2022/01/10 10:00:42;;;;;;;34.60;6.25;;;4.80;99.90;;;;;;4985495;28;20054;-74
2022/01/10 10:03:09;;;;;;;35.78;6.80;;;4.90;99.90;;;;;;4999738;28;20065;-80
2022/01/10 10:05:37;;;;;;;42.05;5.68;;;5.00;99.90;;;;;;5005438;28;20054;-79
2022/01/10 10:08:05;;;;;;;28.63;6.22;;;5.00;99.90;;;;;;5004209;28;20053;-77
2022/01/10 10:10:34;;;;;;;28.00;5.90;;;5.10;99.90;;;;;;5005965;28;20057;-74
2022/01/10 10:13:02;;;;;;;37.88;7.10;;;5.20;99.90;;;;;;5021079;28;20058;-76
2022/01/10 10:15:32;;;;;;;39.95;7.25;;;5.20;99.90;;;;;;5004834;28;20050;-72
2022/01/10 10:18:00;;;;;;;47.00;7.05;;;5.30;99.90;;;;;;5005119;28;20053;-75
2022/01/10 10:20:28;;;;;;;42.25;6.63;;;5.40;99.90;;;;;;5004480;28;20054;-79
2022/01/10 10:23:16;;;;;;;38.17;6.05;;;5.50;99.90;;;;;;4990751;28;20042;-80
2022/01/10 10:25:54;;;;;;;32.17;5.63;;;5.50;99.90;;;;;;4985817;28;20411;-79
2022/01/10 10:28:22;;;;;;;33.90;6.00;;;5.70;99.90;;;;;;4984119;28;20058;-79
2022/01/10 10:30:57;;;;;;;38.58;5.88;;;5.80;99.90;;;;;;4984727;28;20055;-80
2022/01/10 10:33:27;;;;;;;36.47;6.20;;;5.80;99.90;;;;;;4979615;28;20059;-79
2022/01/10 10:35:58;;;;;;;34.03;5.53;;;5.90;99.90;;;;;;4965494;28;20055;-80
2022/01/10 10:38:28;;;;;;;27.98;5.68;;;6.00;99.90;;;;;;4965719;28;20058;-76
2022/01/10 10:41:01;;;;;;;36.08;5.90;;;6.10;99.90;;;;;;4974173;28;20038;-80
2022/01/10 10:43:38;;;;;;;34.65;5.65;;;6.10;99.90;;;;;;4969771;28;20058;-81
2022/01/10 10:46:14;;;;;;;36.47;5.90;;;6.20;99.90;;;;;;4968552;28;20503;-75
2022/01/10 10:48:49;;;;;;;38.00;6.05;;;6.30;99.90;;;;;;4984391;28;20046;-82
2022/01/10 10:51:17;;;;;;;26.92;5.93;;;6.40;99.90;;;;;;4983999;28;20373;-81
2022/01/10 10:53:47;;;;;;;29.80;5.43;;;6.40;99.90;;;;;;4983347;28;20054;-81
2022/01/10 10:56:15;;;;;;;31.50;5.70;;;6.50;99.90;;;;;;4985807;28;20088;-81
2022/01/10 10:58:45;;;;;;;38.17;5.63;;;6.60;99.90;;;;;;4985803;28;20082;-78
2022/01/10 11:01:14;;;;;;;32.65;5.32;;;6.60;99.90;;;;;;4986273;28;20085;-77
2022/01/10 11:03:44;;;;;;;24.52;5.63;;;6.70;99.90;;;;;;5000299;28;20050;-76
2022/01/10 11:06:12;;;;;;;26.38;5.28;;;6.80;99.90;;;;;;4985698;28;20050;-76
2022/01/10 11:08:43;;;;;;;30.42;5.22;;;6.80;99.90;;;;;;4968401;28;20338;-83
2022/01/10 11:11:16;;;;;;;33.42;5.85;;;6.90;99.90;;;;;;4984627;28;20053;-76
2022/01/10 11:13:44;;;;;;;33.58;5.55;;;6.90;99.90;;;;;;4987757;28;20096;-75
2022/01/10 11:16:14;;;;;;;;;;;6.90;99.90;;;;;;5004433;28;20042;-75
2022/01/10 11:18:46;;;;;;;34.75;5.97;;;6.90;99.90;;;;;;5005854;28;20302;-76
2022/01/10 11:21:16;;;;;;;24.73;4.70;;;7.00;99.90;;;;;;5009665;28;20421;-75
2022/01/10 11:23:46;;;;;;;40.63;5.68;;;7.00;99.90;;;;;;5008636;28;20041;-73
2022/01/10 11:26:14;;;;;;;23.67;4.65;;;7.00;99.90;;;;;;4989433;28;20042;-75
2022/01/10 11:28:52;;;;;;;33.45;5.70;;;7.00;99.90;;;;;;4988070;28;20493;-74
2022/01/10 11:31:28;;;;;;;37.45;5.90;;;7.10;99.90;;;;;;4982675;28;20050;-72
2022/01/10 11:33:58;;;;;;;21.08;4.63;;;7.10;99.90;;;;;;4999619;28;20046;-84
2022/01/10 11:36:28;;;;;;;27.17;5.20;;;7.20;99.90;;;;;;4996045;28;20058;-71
2022/01/10 11:39:07;;;;;;;27.73;5.38;;;7.20;99.90;;;;;;4989188;28;20390;-77
2022/01/10 11:41:35;;;;;;;30.10;5.05;;;7.30;99.90;;;;;;5005992;28;20061;-72
2022/01/10 11:44:13;;;;;;;30.83;5.05;;;7.30;99.90;;;;;;5002817;28;20050;-80
2022/01/10 11:46:45;;;;;;;36.08;5.22;;;7.30;99.90;;;;;;4996820;28;20046;-79
2022/01/10 11:49:12;;;;;;;29.13;5.03;;;7.30;99.90;;;;;;4990840;28;20054;-77
2022/01/10 11:51:49;;;;;;;30.63;5.05;;;7.40;99.90;;;;;;5005566;28;20504;-77
2022/01/10 11:54:28;;;;;;;29.00;5.10;;;7.40;99.90;;;;;;5003632;28;20053;-81
2022/01/10 11:57:00;;;;;;;25.67;4.93;;;7.50;99.90;;;;;;5001807;28;20042;-79
2022/01/10 11:59:28;;;;;;;24.80;4.82;;;7.50;99.90;;;;;;5001725;28;20053;-84
2022/01/10 12:02:05;;;;;;;19.52;4.90;;;7.60;99.90;;;;;;4999813;28;20053;-78
2022/01/10 12:04:37;;;;;;;31.70;5.60;;;7.60;99.90;;;;;;4998567;28;20576;-79
2022/01/10 12:07:08;;;;;;;37.00;6.18;;;7.60;99.90;;;;;;5003551;28;20049;-82
2022/01/10 12:09:37;;;;;;;26.15;5.22;;;7.60;99.90;;;;;;5004329;28;20045;-74
2022/01/10 12:12:09;;;;;;;25.45;5.25;;;7.60;99.90;;;;;;4995301;28;20074;-81
2022/01/10 12:14:38;;;;;;;26.50;6.05;;;7.60;99.90;;;;;;4997503;28;20061;-77
2022/01/10 12:17:08;;;;;;;29.13;5.97;;;7.60;99.90;;;;;;5009385;28;20053;-79
2022/01/10 12:19:37;;;;;;;28.90;5.50;;;7.60;99.90;;;;;;5011262;28;20521;-78
2022/01/10 12:22:06;;;;;;;30.17;6.22;;;7.60;99.90;;;;;;5008325;28;20050;-85
2022/01/10 12:24:35;;;;;;;30.00;6.53;;;7.60;99.90;;;;;;5003524;28;20050;-82
2022/01/10 12:27:06;;;;;;;33.10;6.32;;;7.60;99.90;;;;;;4971364;28;20823;-79
2022/01/10 12:29:35;;;;;;;25.42;6.47;;;7.60;99.90;;;;;;4988759;28;20058;-76
2022/01/10 12:32:07;;;;;;;32.00;5.88;;;7.60;99.90;;;;;;4987428;28;20054;-75
2022/01/10 12:34:38;;;;;;;33.83;6.15;;;7.60;99.90;;;;;;4971146;28;20054;-78
2022/01/10 12:37:06;;;;;;;28.95;5.78;;;7.60;99.90;;;;;;4991461;28;20084;-78
2022/01/10 12:39:37;;;;;;;26.70;5.65;;;7.60;99.90;;;;;;5004139;28;20050;-83
2022/01/10 12:42:05;;;;;;;26.95;5.82;;;7.60;99.90;;;;;;4988757;28;20046;-75
2022/01/10 12:44:33;;;;;;;34.97;6.55;;;7.60;99.90;;;;;;5022056;28;20042;-83
2022/01/10 12:47:01;;;;;;;33.22;7.82;;;7.60;99.90;;;;;;5004767;28;20143;-80
2022/01/10 12:49:31;;;;;;;30.55;8.63;;;7.60;99.90;;;;;;5004427;28;20666;-74
2022/01/10 12:51:59;;;;;;;32.47;8.15;;;7.60;99.90;;;;;;5004990;28;20491;-75
2022/01/10 12:54:31;;;;;;;34.75;9.30;;;7.60;99.90;;;;;;5001259;28;20054;-77
2022/01/10 12:57:00;;;;;;;30.50;7.13;;;7.60;99.90;;;;;;5004688;28;20050;-80
2022/01/10 12:59:31;;;;;;;27.50;6.70;;;7.70;99.90;;;;;;5003963;28;20053;-80
2022/01/10 13:02:01;;;;;;;28.83;7.53;;;7.70;99.90;;;;;;5002196;28;20057;-83
2022/01/10 13:04:34;;;;;;;31.75;7.55;;;7.70;99.90;;;;;;5000687;28;20069;-76
2022/01/10 13:07:06;;;;;;;39.70;9.75;;;7.70;99.90;;;;;;5006159;28;20486;-84
2022/01/10 13:09:57;;;;;;;37.15;8.93;;;7.70;99.90;;;;;;5006530;28;20494;-83
2022/01/10 13:12:28;;;;;;;35.92;8.07;;;7.70;99.90;;;;;;5000349;28;20038;-81